sensor_id;sensor_type;location;lat;lon;timestamp;temperature;humidity
2571;DHT22;1295;51.130;6.732;2023-04-24T00:00:15;12.60;99.90
2571;DHT22;1295;51.130;6.732;2023-04-24T00:02:42;12.70;99.90
2571;DHT22;1295;51.130;6.732;2023-04-24T00:05:08;12.80;99.90
2571;DHT22;1295;51.130;6.732;2023-04-24T00:07:34;13.10;99.90
2571;DHT22;1295;51.130;6.732;2023-04-24T00:09:59;13.20;99.90
2571;DHT22;1295;51.130;6.732;2023-04-24T00:12:25;13.00;99.90
2571;DHT22;1295;51.130;6.732;2023-04-24T00:14:50;12.90;99.90
2571;DHT22;1295;51.130;6.732;2023-04-24T00:17:16;12.50;99.90
2571;DHT22;1295;51.130;6.732;2023-04-24T00:19:42;12.60;99.90
2571;DHT22;1295;51.130;6.732;2023-04-24T00:22:08;12.50;99.90
2571;DHT22;1295;51.130;6.732;2023-04-24T00:24:33;12.50;99.90
2571;DHT22;1295;51.130;6.732;2023-04-24T00:26:59;12.30;99.90
2571;DHT22;1295;51.130;6.732;2023-04-24T00:29:25;13.00;99.90
2571;DHT22;1295;51.130;6.732;2023-04-24T00:31:51;13.00;99.90
2571;DHT22;1295;51.130;6.732;2023-04-24T00:34:17;12.70;99.90
2571;DHT22;1295;51.130;6.732;2023-04-24T00:36:43;12.80;99.90
2571;DHT22;1295;51.130;6.732;2023-04-24T00:39:09;12.80;99.90
2571;DHT22;1295;51.130;6.732;2023-04-24T00:41:35;12.90;99.90
2571;DHT22;1295;51.130;6.732;2023-04-24T00:44:00;12.60;99.90
2571;DHT22;1295;51.130;6.732;2023-04-24T00:46:26;13.20;99.90
2571;DHT22;1295;51.130;6.732;2023-04-24T00:48:51;13.00;99.90
2571;DHT22;1295;51.130;6.732;2023-04-24T00:51:17;13.10;99.90
2571;DHT22;1295;51.130;6.732;2023-04-24T00:53:43;13.40;99.90
2571;DHT22;1295;51.130;6.732;2023-04-24T00:56:08;13.50;99.90
2571;DHT22;1295;51.130;6.732;2023-04-24T00:58:34;12.70;99.90
2571;DHT22;1295;51.130;6.732;2023-04-24T01:01:00;12.40;99.90
2571;DHT22;1295;51.130;6.732;2023-04-24T01:03:26;12.40;99.90
2571;DHT22;1295;51.130;6.732;2023-04-24T01:05:51;12.10;99.90
2571;DHT22;1295;51.130;6.732;2023-04-24T01:08:17;12.10;99.90
2571;DHT22;1295;51.130;6.732;2023-04-24T01:10:43;12.10;99.90
2571;DHT22;1295;51.130;6.732;2023-04-24T01:13:09;12.40;99.90
2571;DHT22;1295;51.130;6.732;2023-04-24T01:15:34;12.20;99.90
2571;DHT22;1295;51.130;6.732;2023-04-24T01:18:00;12.20;99.90
2571;DHT22;1295;51.130;6.732;2023-04-24T01:20:25;12.20;99.90
2571;DHT22;1295;51.130;6.732;2023-04-24T01:22:53;11.70;99.90
2571;DHT22;1295;51.130;6.732;2023-04-24T01:25:18;11.70;99.90
2571;DHT22;1295;51.130;6.732;2023-04-24T01:27:43;12.10;99.90
2571;DHT22;1295;51.130;6.732;2023-04-24T01:30:10;12.20;99.90
2571;DHT22;1295;51.130;6.732;2023-04-24T01:32:36;12.10;99.90
2571;DHT22;1295;51.130;6.732;2023-04-24T01:35:01;11.90;99.90
2571;DHT22;1295;51.130;6.732;2023-04-24T01:37:28;12.20;99.90
2571;DHT22;1295;51.130;6.732;2023-04-24T01:39:53;12.20;99.90
2571;DHT22;1295;51.130;6.732;2023-04-24T01:42:19;11.90;99.90
2571;DHT22;1295;51.130;6.732;2023-04-24T01:44:44;12.60;99.90
2571;DHT22;1295;51.130;6.732;2023-04-24T01:47:11;12.40;99.90
2571;DHT22;1295;51.130;6.732;2023-04-24T01:49:37;12.30;99.90
2571;DHT22;1295;51.130;6.732;2023-04-24T01:52:02;12.60;99.90
2571;DHT22;1295;51.130;6.732;2023-04-24T01:54:28;12.20;99.90
2571;DHT22;1295;51.130;6.732;2023-04-24T01:56:54;12.70;99.90
2571;DHT22;1295;51.130;6.732;2023-04-24T01:59:20;12.70;99.90
2571;DHT22;1295;51.130;6.732;2023-04-24T02:01:45;11.60;99.90
2571;DHT22;1295;51.130;6.732;2023-04-24T02:04:11;11.60;99.90
2571;DHT22;1295;51.130;6.732;2023-04-24T02:06:37;11.80;99.90
2571;DHT22;1295;51.130;6.732;2023-04-24T02:09:03;11.80;99.90
2571;DHT22;1295;51.130;6.732;2023-04-24T02:11:34;11.80;99.90
2571;DHT22;1295;51.130;6.732;2023-04-24T02:13:59;12.00;99.90
2571;DHT22;1295;51.130;6.732;2023-04-24T02:16:25;12.10;99.90
2571;DHT22;1295;51.130;6.732;2023-04-24T02:18:51;11.70;99.90
2571;DHT22;1295;51.130;6.732;2023-04-24T02:21:17;11.60;99.90
2571;DHT22;1295;51.130;6.732;2023-04-24T02:23:43;11.70;99.90
2571;DHT22;1295;51.130;6.732;2023-04-24T02:26:10;11.10;99.90
2571;DHT22;1295;51.130;6.732;2023-04-24T02:28:36;11.10;99.90
2571;DHT22;1295;51.130;6.732;2023-04-24T02:31:02;11.30;99.90
2571;DHT22;1295;51.130;6.732;2023-04-24T02:33:27;11.50;99.90
2571;DHT22;1295;51.130;6.732;2023-04-24T02:35:53;11.80;99.90
2571;DHT22;1295;51.130;6.732;2023-04-24T02:38:19;11.40;99.90
2571;DHT22;1295;51.130;6.732;2023-04-24T02:40:44;12.60;99.90
2571;DHT22;1295;51.130;6.732;2023-04-24T02:43:10;12.00;99.90
2571;DHT22;1295;51.130;6.732;2023-04-24T02:45:35;12.20;99.90
2571;DHT22;1295;51.130;6.732;2023-04-24T02:48:01;12.30;99.90
2571;DHT22;1295;51.130;6.732;2023-04-24T02:50:28;11.90;99.90
2571;DHT22;1295;51.130;6.732;2023-04-24T02:52:53;11.90;99.90
2571;DHT22;1295;51.130;6.732;2023-04-24T02:55:19;12.30;99.90
2571;DHT22;1295;51.130;6.732;2023-04-24T02:57:44;12.20;99.90
2571;DHT22;1295;51.130;6.732;2023-04-24T03:00:11;11.80;99.90
2571;DHT22;1295;51.130;6.732;2023-04-24T03:02:38;11.60;99.90
2571;DHT22;1295;51.130;6.732;2023-04-24T03:05:04;11.60;99.90
2571;DHT22;1295;51.130;6.732;2023-04-24T03:07:30;11.40;99.90
2571;DHT22;1295;51.130;6.732;2023-04-24T03:09:55;11.80;99.90
2571;DHT22;1295;51.130;6.732;2023-04-24T03:12:21;12.00;99.90
2571;DHT22;1295;51.130;6.732;2023-04-24T03:14:47;12.20;99.90
2571;DHT22;1295;51.130;6.732;2023-04-24T03:17:12;12.00;99.90
2571;DHT22;1295;51.130;6.732;2023-04-24T03:19:39;11.50;99.90
2571;DHT22;1295;51.130;6.732;2023-04-24T03:22:04;11.50;99.90
2571;DHT22;1295;51.130;6.732;2023-04-24T03:24:30;11.70;99.90
2571;DHT22;1295;51.130;6.732;2023-04-24T03:26:56;11.90;99.90
2571;DHT22;1295;51.130;6.732;2023-04-24T03:29:21;12.20;99.90
2571;DHT22;1295;51.130;6.732;2023-04-24T03:31:48;12.30;99.90
2571;DHT22;1295;51.130;6.732;2023-04-24T03:34:14;11.60;99.90
2571;DHT22;1295;51.130;6.732;2023-04-24T03:36:40;11.50;99.90
2571;DHT22;1295;51.130;6.732;2023-04-24T03:39:05;11.00;99.90
2571;DHT22;1295;51.130;6.732;2023-04-24T03:41:31;11.80;99.90
2571;DHT22;1295;51.130;6.732;2023-04-24T03:43:56;12.20;99.90
2571;DHT22;1295;51.130;6.732;2023-04-24T03:46:22;12.20;99.90
2571;DHT22;1295;51.130;6.732;2023-04-24T03:48:48;11.80;99.90
2571;DHT22;1295;51.130;6.732;2023-04-24T03:51:13;11.30;99.90
2571;DHT22;1295;51.130;6.732;2023-04-24T03:53:39;11.60;99.90
2571;DHT22;1295;51.130;6.732;2023-04-24T03:56:05;11.20;99.90
2571;DHT22;1295;51.130;6.732;2023-04-24T03:58:34;12.10;99.90
2571;DHT22;1295;51.130;6.732;2023-04-24T04:01:00;12.10;99.90
2571;DHT22;1295;51.130;6.732;2023-04-24T04:03:25;11.60;99.90
2571;DHT22;1295;51.130;6.732;2023-04-24T04:05:51;11.30;99.90
2571;DHT22;1295;51.130;6.732;2023-04-24T04:08:17;10.90;99.90
2571;DHT22;1295;51.130;6.732;2023-04-24T04:10:42;11.30;99.90
2571;DHT22;1295;51.130;6.732;2023-04-24T04:13:08;10.90;99.90
2571;DHT22;1295;51.130;6.732;2023-04-24T04:15:34;11.10;99.90
2571;DHT22;1295;51.130;6.732;2023-04-24T04:17:59;11.50;99.90
2571;DHT22;1295;51.130;6.732;2023-04-24T04:20:25;11.30;99.90
2571;DHT22;1295;51.130;6.732;2023-04-24T04:22:51;11.20;99.90
2571;DHT22;1295;51.130;6.732;2023-04-24T04:25:17;11.20;99.90
2571;DHT22;1295;51.130;6.732;2023-04-24T04:27:50;11.80;99.90
2571;DHT22;1295;51.130;6.732;2023-04-24T04:30:16;11.30;99.90
2571;DHT22;1295;51.130;6.732;2023-04-24T04:32:42;11.30;99.90
2571;DHT22;1295;51.130;6.732;2023-04-24T04:35:07;11.80;99.90
2571;DHT22;1295;51.130;6.732;2023-04-24T04:37:33;11.40;99.90
2571;DHT22;1295;51.130;6.732;2023-04-24T04:39:59;11.00;99.90
2571;DHT22;1295;51.130;6.732;2023-04-24T04:42:25;11.80;99.90
2571;DHT22;1295;51.130;6.732;2023-04-24T04:44:50;11.70;99.90
2571;DHT22;1295;51.130;6.732;2023-04-24T04:47:16;11.30;99.90
2571;DHT22;1295;51.130;6.732;2023-04-24T04:49:41;10.90;99.90
2571;DHT22;1295;51.130;6.732;2023-04-24T04:52:07;11.00;99.90
2571;DHT22;1295;51.130;6.732;2023-04-24T04:54:32;10.80;99.90
2571;DHT22;1295;51.130;6.732;2023-04-24T04:56:58;11.40;99.90
2571;DHT22;1295;51.130;6.732;2023-04-24T04:59:24;11.60;99.90
2571;DHT22;1295;51.130;6.732;2023-04-24T05:01:49;11.80;99.90
2571;DHT22;1295;51.130;6.732;2023-04-24T05:04:15;11.40;99.90
2571;DHT22;1295;51.130;6.732;2023-04-24T05:06:41;11.40;99.90
2571;DHT22;1295;51.130;6.732;2023-04-24T05:09:06;11.80;99.90
2571;DHT22;1295;51.130;6.732;2023-04-24T05:11:32;11.20;99.90
2571;DHT22;1295;51.130;6.732;2023-04-24T05:13:58;11.80;99.90
2571;DHT22;1295;51.130;6.732;2023-04-24T05:16:24;11.80;99.90
2571;DHT22;1295;51.130;6.732;2023-04-24T05:18:50;11.70;99.90
2571;DHT22;1295;51.130;6.732;2023-04-24T05:21:15;11.40;99.90
2571;DHT22;1295;51.130;6.732;2023-04-24T05:23:41;11.20;99.90
2571;DHT22;1295;51.130;6.732;2023-04-24T05:26:06;10.90;99.90
2571;DHT22;1295;51.130;6.732;2023-04-24T05:28:32;11.70;99.90
2571;DHT22;1295;51.130;6.732;2023-04-24T05:30:59;11.50;99.90
2571;DHT22;1295;51.130;6.732;2023-04-24T05:33:24;11.50;99.90
2571;DHT22;1295;51.130;6.732;2023-04-24T05:35:50;11.10;99.90
2571;DHT22;1295;51.130;6.732;2023-04-24T05:38:15;10.60;99.90
2571;DHT22;1295;51.130;6.732;2023-04-24T05:40:42;10.80;99.90
2571;DHT22;1295;51.130;6.732;2023-04-24T05:43:08;10.70;99.90
2571;DHT22;1295;51.130;6.732;2023-04-24T05:45:33;11.30;99.90
2571;DHT22;1295;51.130;6.732;2023-04-24T05:47:59;11.10;99.90
2571;DHT22;1295;51.130;6.732;2023-04-24T05:50:25;11.40;99.90
2571;DHT22;1295;51.130;6.732;2023-04-24T05:52:50;11.40;99.90
2571;DHT22;1295;51.130;6.732;2023-04-24T05:55:16;11.10;99.90
2571;DHT22;1295;51.130;6.732;2023-04-24T05:57:42;10.80;99.90
2571;DHT22;1295;51.130;6.732;2023-04-24T06:00:09;10.90;99.90
2571;DHT22;1295;51.130;6.732;2023-04-24T06:02:34;11.20;99.90
2571;DHT22;1295;51.130;6.732;2023-04-24T06:05:00;11.10;99.90
2571;DHT22;1295;51.130;6.732;2023-04-24T06:07:25;10.50;99.90
2571;DHT22;1295;51.130;6.732;2023-04-24T06:09:52;11.40;99.90
2571;DHT22;1295;51.130;6.732;2023-04-24T06:12:18;11.10;99.90
2571;DHT22;1295;51.130;6.732;2023-04-24T06:14:50;10.40;99.90
2571;DHT22;1295;51.130;6.732;2023-04-24T06:17:16;10.70;99.90
2571;DHT22;1295;51.130;6.732;2023-04-24T06:19:41;11.00;99.90
2571;DHT22;1295;51.130;6.732;2023-04-24T06:22:07;10.80;99.90
2571;DHT22;1295;51.130;6.732;2023-04-24T06:24:33;10.60;99.90
2571;DHT22;1295;51.130;6.732;2023-04-24T06:26:58;11.10;99.90
2571;DHT22;1295;51.130;6.732;2023-04-24T06:29:24;10.20;99.90
2571;DHT22;1295;51.130;6.732;2023-04-24T06:31:50;10.70;99.90
2571;DHT22;1295;51.130;6.732;2023-04-24T06:34:15;11.30;99.90
2571;DHT22;1295;51.130;6.732;2023-04-24T06:36:41;11.20;99.90
2571;DHT22;1295;51.130;6.732;2023-04-24T06:39:13;10.50;99.90
2571;DHT22;1295;51.130;6.732;2023-04-24T06:41:39;10.00;99.90
2571;DHT22;1295;51.130;6.732;2023-04-24T06:44:05;10.40;99.90
2571;DHT22;1295;51.130;6.732;2023-04-24T06:46:31;10.50;99.90
2571;DHT22;1295;51.130;6.732;2023-04-24T06:48:57;10.50;99.90
2571;DHT22;1295;51.130;6.732;2023-04-24T06:51:24;10.80;99.90
2571;DHT22;1295;51.130;6.732;2023-04-24T06:53:51;10.80;99.90
2571;DHT22;1295;51.130;6.732;2023-04-24T06:56:15;10.80;99.90
2571;DHT22;1295;51.130;6.732;2023-04-24T06:58:41;10.70;99.90
2571;DHT22;1295;51.130;6.732;2023-04-24T07:01:07;10.60;99.90
2571;DHT22;1295;51.130;6.732;2023-04-24T07:03:32;10.50;99.90
2571;DHT22;1295;51.130;6.732;2023-04-24T07:05:58;10.60;99.90
2571;DHT22;1295;51.130;6.732;2023-04-24T07:08:23;10.30;99.90
2571;DHT22;1295;51.130;6.732;2023-04-24T07:10:49;10.40;99.90
2571;DHT22;1295;51.130;6.732;2023-04-24T07:13:15;10.70;99.90
2571;DHT22;1295;51.130;6.732;2023-04-24T07:15:40;10.00;99.90
2571;DHT22;1295;51.130;6.732;2023-04-24T07:18:06;10.60;99.90
2571;DHT22;1295;51.130;6.732;2023-04-24T07:20:32;10.70;99.90
2571;DHT22;1295;51.130;6.732;2023-04-24T07:22:58;10.50;99.90
2571;DHT22;1295;51.130;6.732;2023-04-24T07:25:24;10.50;99.90
2571;DHT22;1295;51.130;6.732;2023-04-24T07:27:49;10.70;99.90
2571;DHT22;1295;51.130;6.732;2023-04-24T07:30:16;10.70;99.90
2571;DHT22;1295;51.130;6.732;2023-04-24T07:32:41;10.70;99.90
2571;DHT22;1295;51.130;6.732;2023-04-24T07:35:08;10.20;99.90
2571;DHT22;1295;51.130;6.732;2023-04-24T07:37:35;10.00;99.90
2571;DHT22;1295;51.130;6.732;2023-04-24T07:40:06;10.00;99.90
2571;DHT22;1295;51.130;6.732;2023-04-24T07:42:33;9.50;99.90
2571;DHT22;1295;51.130;6.732;2023-04-24T07:44:59;9.10;99.90
2571;DHT22;1295;51.130;6.732;2023-04-24T07:47:25;9.10;99.90
2571;DHT22;1295;51.130;6.732;2023-04-24T07:49:51;9.30;99.90
2571;DHT22;1295;51.130;6.732;2023-04-24T07:52:16;9.30;99.90
2571;DHT22;1295;51.130;6.732;2023-04-24T07:54:42;9.50;99.90
2571;DHT22;1295;51.130;6.732;2023-04-24T07:57:08;9.70;99.90
2571;DHT22;1295;51.130;6.732;2023-04-24T07:59:34;9.60;99.90
2571;DHT22;1295;51.130;6.732;2023-04-24T08:02:00;9.80;99.90
2571;DHT22;1295;51.130;6.732;2023-04-24T08:04:26;9.80;99.90
2571;DHT22;1295;51.130;6.732;2023-04-24T08:06:52;10.20;99.90
2571;DHT22;1295;51.130;6.732;2023-04-24T08:09:18;10.10;99.90
2571;DHT22;1295;51.130;6.732;2023-04-24T08:11:43;10.10;99.90
2571;DHT22;1295;51.130;6.732;2023-04-24T08:14:09;10.20;99.90
2571;DHT22;1295;51.130;6.732;2023-04-24T08:16:35;10.00;99.90
2571;DHT22;1295;51.130;6.732;2023-04-24T08:19:00;9.90;99.90
2571;DHT22;1295;51.130;6.732;2023-04-24T08:21:27;10.00;99.90
2571;DHT22;1295;51.130;6.732;2023-04-24T08:23:52;10.00;99.90
2571;DHT22;1295;51.130;6.732;2023-04-24T08:26:18;9.90;99.90
2571;DHT22;1295;51.130;6.732;2023-04-24T08:28:44;10.20;99.90
2571;DHT22;1295;51.130;6.732;2023-04-24T08:31:10;10.20;99.90
2571;DHT22;1295;51.130;6.732;2023-04-24T08:33:36;9.60;99.90
2571;DHT22;1295;51.130;6.732;2023-04-24T08:36:02;9.60;99.90
2571;DHT22;1295;51.130;6.732;2023-04-24T08:38:27;9.50;99.90
2571;DHT22;1295;51.130;6.732;2023-04-24T08:40:53;9.30;99.90
2571;DHT22;1295;51.130;6.732;2023-04-24T08:43:20;9.30;99.90
2571;DHT22;1295;51.130;6.732;2023-04-24T08:45:45;9.40;99.90
2571;DHT22;1295;51.130;6.732;2023-04-24T08:48:10;9.20;99.90
2571;DHT22;1295;51.130;6.732;2023-04-24T08:50:36;9.60;99.90
2571;DHT22;1295;51.130;6.732;2023-04-24T08:53:01;9.20;99.90
2571;DHT22;1295;51.130;6.732;2023-04-24T08:55:27;9.60;99.90
2571;DHT22;1295;51.130;6.732;2023-04-24T08:57:53;9.60;99.90
2571;DHT22;1295;51.130;6.732;2023-04-24T09:00:20;9.80;99.90
2571;DHT22;1295;51.130;6.732;2023-04-24T09:02:45;10.60;99.90
2571;DHT22;1295;51.130;6.732;2023-04-24T09:05:11;9.50;99.90
2571;DHT22;1295;51.130;6.732;2023-04-24T09:07:37;9.40;99.90
2571;DHT22;1295;51.130;6.732;2023-04-24T09:10:03;10.10;99.90
2571;DHT22;1295;51.130;6.732;2023-04-24T09:12:29;10.20;99.90
2571;DHT22;1295;51.130;6.732;2023-04-24T09:14:55;10.10;99.90
2571;DHT22;1295;51.130;6.732;2023-04-24T09:17:21;9.80;99.90
2571;DHT22;1295;51.130;6.732;2023-04-24T09:19:47;9.70;99.90
2571;DHT22;1295;51.130;6.732;2023-04-24T09:22:13;9.70;99.90
2571;DHT22;1295;51.130;6.732;2023-04-24T09:24:38;10.00;99.90
2571;DHT22;1295;51.130;6.732;2023-04-24T09:27:04;10.40;99.90
2571;DHT22;1295;51.130;6.732;2023-04-24T09:29:30;10.10;99.90
2571;DHT22;1295;51.130;6.732;2023-04-24T09:31:55;10.40;99.90
2571;DHT22;1295;51.130;6.732;2023-04-24T09:34:22;10.50;99.90
2571;DHT22;1295;51.130;6.732;2023-04-24T09:36:48;10.80;99.90
2571;DHT22;1295;51.130;6.732;2023-04-24T09:39:14;10.80;99.90
2571;DHT22;1295;51.130;6.732;2023-04-24T09:41:44;10.90;99.90
2571;DHT22;1295;51.130;6.732;2023-04-24T09:44:11;9.80;99.90
2571;DHT22;1295;51.130;6.732;2023-04-24T09:46:35;9.70;99.90
2571;DHT22;1295;51.130;6.732;2023-04-24T09:49:08;10.10;99.90
2571;DHT22;1295;51.130;6.732;2023-04-24T09:51:34;10.20;99.90
2571;DHT22;1295;51.130;6.732;2023-04-24T09:54:00;9.70;99.90
2571;DHT22;1295;51.130;6.732;2023-04-24T09:56:25;9.60;99.90
2571;DHT22;1295;51.130;6.732;2023-04-24T09:58:51;9.70;99.90
2571;DHT22;1295;51.130;6.732;2023-04-24T10:01:28;9.70;99.90
2571;DHT22;1295;51.130;6.732;2023-04-24T10:03:42;10.20;99.90
2571;DHT22;1295;51.130;6.732;2023-04-24T10:06:08;10.20;99.90
2571;DHT22;1295;51.130;6.732;2023-04-24T10:08:34;10.20;99.90
2571;DHT22;1295;51.130;6.732;2023-04-24T10:10:59;10.10;99.90
2571;DHT22;1295;51.130;6.732;2023-04-24T10:13:25;10.60;99.90
2571;DHT22;1295;51.130;6.732;2023-04-24T10:15:51;10.40;99.90
2571;DHT22;1295;51.130;6.732;2023-04-24T10:18:16;10.60;99.90
2571;DHT22;1295;51.130;6.732;2023-04-24T10:20:42;10.50;99.90
2571;DHT22;1295;51.130;6.732;2023-04-24T10:23:07;10.20;99.90
2571;DHT22;1295;51.130;6.732;2023-04-24T10:25:34;10.30;99.90
2571;DHT22;1295;51.130;6.732;2023-04-24T10:27:59;10.30;99.90
2571;DHT22;1295;51.130;6.732;2023-04-24T10:30:26;10.60;99.90
2571;DHT22;1295;51.130;6.732;2023-04-24T10:32:57;10.30;99.90
2571;DHT22;1295;51.130;6.732;2023-04-24T10:35:23;10.30;99.90
2571;DHT22;1295;51.130;6.732;2023-04-24T10:37:50;10.30;99.90
2571;DHT22;1295;51.130;6.732;2023-04-24T10:40:17;11.00;99.90
2571;DHT22;1295;51.130;6.732;2023-04-24T10:42:40;11.20;99.90
2571;DHT22;1295;51.130;6.732;2023-04-24T10:45:15;10.40;99.90
2571;DHT22;1295;51.130;6.732;2023-04-24T10:47:40;10.20;99.90
2571;DHT22;1295;51.130;6.732;2023-04-24T10:50:13;10.90;99.90
2571;DHT22;1295;51.130;6.732;2023-04-24T10:52:51;10.60;99.90
2571;DHT22;1295;51.130;6.732;2023-04-24T10:58:09;11.00;99.90
2571;DHT22;1295;51.130;6.732;2023-04-24T11:00:38;11.00;99.90
2571;DHT22;1295;51.130;6.732;2023-04-24T11:03:04;11.10;99.90
2571;DHT22;1295;51.130;6.732;2023-04-24T11:05:48;10.50;99.90
2571;DHT22;1295;51.130;6.732;2023-04-24T11:08:10;10.20;99.90
2571;DHT22;1295;51.130;6.732;2023-04-24T11:10:38;10.90;99.90
2571;DHT22;1295;51.130;6.732;2023-04-24T11:13:03;11.00;99.90
2571;DHT22;1295;51.130;6.732;2023-04-24T11:15:29;10.90;99.90
2571;DHT22;1295;51.130;6.732;2023-04-24T11:17:55;10.90;99.90
2571;DHT22;1295;51.130;6.732;2023-04-24T11:20:22;11.30;99.90
2571;DHT22;1295;51.130;6.732;2023-04-24T11:22:46;10.80;99.90
2571;DHT22;1295;51.130;6.732;2023-04-24T11:25:13;10.90;99.90
2571;DHT22;1295;51.130;6.732;2023-04-24T11:27:39;10.90;99.90
2571;DHT22;1295;51.130;6.732;2023-04-24T11:30:05;11.00;99.90
2571;DHT22;1295;51.130;6.732;2023-04-24T11:32:41;11.30;99.90
2571;DHT22;1295;51.130;6.732;2023-04-24T11:35:13;11.50;99.90
2571;DHT22;1295;51.130;6.732;2023-04-24T11:37:38;11.50;99.90
2571;DHT22;1295;51.130;6.732;2023-04-24T11:40:04;11.50;99.90
2571;DHT22;1295;51.130;6.732;2023-04-24T11:42:36;11.70;99.90
2571;DHT22;1295;51.130;6.732;2023-04-24T11:45:02;11.70;99.90
2571;DHT22;1295;51.130;6.732;2023-04-24T11:47:28;11.40;99.90
2571;DHT22;1295;51.130;6.732;2023-04-24T11:49:53;11.40;99.90
2571;DHT22;1295;51.130;6.732;2023-04-24T11:52:19;11.50;99.90
2571;DHT22;1295;51.130;6.732;2023-04-24T11:54:48;11.20;99.90
2571;DHT22;1295;51.130;6.732;2023-04-24T11:57:13;11.20;99.90
2571;DHT22;1295;51.130;6.732;2023-04-24T11:59:38;11.10;99.90
2571;DHT22;1295;51.130;6.732;2023-04-24T12:02:05;11.70;99.90
2571;DHT22;1295;51.130;6.732;2023-04-24T12:04:38;11.70;99.90
2571;DHT22;1295;51.130;6.732;2023-04-24T12:06:59;11.40;99.90
2571;DHT22;1295;51.130;6.732;2023-04-24T12:09:24;11.40;99.90
2571;DHT22;1295;51.130;6.732;2023-04-24T12:11:54;11.30;99.90
2571;DHT22;1295;51.130;6.732;2023-04-24T12:14:20;11.40;99.90
2571;DHT22;1295;51.130;6.732;2023-04-24T12:16:47;11.50;99.90
2571;DHT22;1295;51.130;6.732;2023-04-24T12:19:11;11.20;99.90
2571;DHT22;1295;51.130;6.732;2023-04-24T12:21:37;11.40;99.90
2571;DHT22;1295;51.130;6.732;2023-04-24T12:24:05;11.50;99.90
2571;DHT22;1295;51.130;6.732;2023-04-24T12:26:28;11.60;99.90
2571;DHT22;1295;51.130;6.732;2023-04-24T12:28:53;11.60;99.90
2571;DHT22;1295;51.130;6.732;2023-04-24T12:31:20;11.70;99.90
2571;DHT22;1295;51.130;6.732;2023-04-24T12:33:45;11.70;99.90
2571;DHT22;1295;51.130;6.732;2023-04-24T12:36:10;11.60;99.90
2571;DHT22;1295;51.130;6.732;2023-04-24T12:38:36;11.40;99.90
2571;DHT22;1295;51.130;6.732;2023-04-24T12:41:06;11.40;99.90
2571;DHT22;1295;51.130;6.732;2023-04-24T12:43:31;11.40;99.90
2571;DHT22;1295;51.130;6.732;2023-04-24T12:45:57;11.70;99.90
2571;DHT22;1295;51.130;6.732;2023-04-24T12:48:22;11.90;99.90
2571;DHT22;1295;51.130;6.732;2023-04-24T12:50:48;11.90;99.90
2571;DHT22;1295;51.130;6.732;2023-04-24T12:53:14;11.90;99.90
2571;DHT22;1295;51.130;6.732;2023-04-24T12:55:39;11.90;99.90
2571;DHT22;1295;51.130;6.732;2023-04-24T12:58:05;11.90;99.90
2571;DHT22;1295;51.130;6.732;2023-04-24T13:00:36;11.70;99.90
2571;DHT22;1295;51.130;6.732;2023-04-24T13:03:02;11.60;99.90
2571;DHT22;1295;51.130;6.732;2023-04-24T13:05:28;11.60;99.90
2571;DHT22;1295;51.130;6.732;2023-04-24T13:07:54;11.50;99.90
2571;DHT22;1295;51.130;6.732;2023-04-24T13:10:19;11.60;99.90
2571;DHT22;1295;51.130;6.732;2023-04-24T13:12:45;11.50;99.90
2571;DHT22;1295;51.130;6.732;2023-04-24T13:15:11;11.60;99.90
2571;DHT22;1295;51.130;6.732;2023-04-24T13:17:37;11.70;99.90
2571;DHT22;1295;51.130;6.732;2023-04-24T13:20:04;11.70;99.90
2571;DHT22;1295;51.130;6.732;2023-04-24T13:22:30;12.10;99.90
2571;DHT22;1295;51.130;6.732;2023-04-24T13:24:56;12.10;99.90
2571;DHT22;1295;51.130;6.732;2023-04-24T13:27:21;12.20;99.90
2571;DHT22;1295;51.130;6.732;2023-04-24T13:29:47;12.10;99.90
2571;DHT22;1295;51.130;6.732;2023-04-24T13:32:13;11.90;99.90
2571;DHT22;1295;51.130;6.732;2023-04-24T13:34:39;11.90;99.90
2571;DHT22;1295;51.130;6.732;2023-04-24T13:37:05;12.10;99.90
2571;DHT22;1295;51.130;6.732;2023-04-24T13:39:30;12.00;99.90
2571;DHT22;1295;51.130;6.732;2023-04-24T13:41:56;11.90;99.90
2571;DHT22;1295;51.130;6.732;2023-04-24T13:44:22;11.90;99.90
2571;DHT22;1295;51.130;6.732;2023-04-24T13:46:49;11.90;99.90
2571;DHT22;1295;51.130;6.732;2023-04-24T13:49:15;12.10;99.90
2571;DHT22;1295;51.130;6.732;2023-04-24T13:51:40;12.10;99.90
2571;DHT22;1295;51.130;6.732;2023-04-24T13:54:06;12.00;99.90
2571;DHT22;1295;51.130;6.732;2023-04-24T13:56:32;12.00;99.90
2571;DHT22;1295;51.130;6.732;2023-04-24T13:58:57;12.00;99.90
2571;DHT22;1295;51.130;6.732;2023-04-24T14:01:23;12.00;99.90
2571;DHT22;1295;51.130;6.732;2023-04-24T14:03:48;11.90;99.90
2571;DHT22;1295;51.130;6.732;2023-04-24T14:06:14;12.00;99.90
2571;DHT22;1295;51.130;6.732;2023-04-24T14:08:40;12.00;99.90
2571;DHT22;1295;51.130;6.732;2023-04-24T14:11:05;11.90;99.90
2571;DHT22;1295;51.130;6.732;2023-04-24T14:13:31;12.10;99.90
2571;DHT22;1295;51.130;6.732;2023-04-24T14:15:57;12.10;99.90
2571;DHT22;1295;51.130;6.732;2023-04-24T14:18:23;12.10;99.90
2571;DHT22;1295;51.130;6.732;2023-04-24T14:20:49;12.00;99.90
2571;DHT22;1295;51.130;6.732;2023-04-24T14:23:15;12.10;99.90
2571;DHT22;1295;51.130;6.732;2023-04-24T14:25:40;12.10;99.90
2571;DHT22;1295;51.130;6.732;2023-04-24T14:28:06;12.00;99.90
2571;DHT22;1295;51.130;6.732;2023-04-24T14:30:42;12.00;99.90
2571;DHT22;1295;51.130;6.732;2023-04-24T14:33:08;12.10;99.90
2571;DHT22;1295;51.130;6.732;2023-04-24T14:35:33;12.10;99.90
2571;DHT22;1295;51.130;6.732;2023-04-24T14:37:59;12.10;99.90
2571;DHT22;1295;51.130;6.732;2023-04-24T14:40:25;12.10;99.90
2571;DHT22;1295;51.130;6.732;2023-04-24T14:42:50;12.10;99.90
2571;DHT22;1295;51.130;6.732;2023-04-24T14:45:16;12.10;99.90
2571;DHT22;1295;51.130;6.732;2023-04-24T14:47:42;12.20;99.90
2571;DHT22;1295;51.130;6.732;2023-04-24T14:50:08;12.30;99.90
2571;DHT22;1295;51.130;6.732;2023-04-24T14:52:34;12.30;99.90
2571;DHT22;1295;51.130;6.732;2023-04-24T14:54:59;12.20;99.90
2571;DHT22;1295;51.130;6.732;2023-04-24T14:57:25;12.20;99.90
2571;DHT22;1295;51.130;6.732;2023-04-24T14:59:51;12.30;99.90
2571;DHT22;1295;51.130;6.732;2023-04-24T15:02:16;12.30;99.90
2571;DHT22;1295;51.130;6.732;2023-04-24T15:04:42;12.30;99.90
2571;DHT22;1295;51.130;6.732;2023-04-24T15:07:08;12.30;99.90
2571;DHT22;1295;51.130;6.732;2023-04-24T15:09:34;12.30;99.90
2571;DHT22;1295;51.130;6.732;2023-04-24T15:12:00;12.30;99.90
2571;DHT22;1295;51.130;6.732;2023-04-24T15:14:25;12.30;99.90
2571;DHT22;1295;51.130;6.732;2023-04-24T15:16:51;12.30;99.90
2571;DHT22;1295;51.130;6.732;2023-04-24T15:19:17;12.40;99.90
2571;DHT22;1295;51.130;6.732;2023-04-24T15:21:42;12.30;99.90
2571;DHT22;1295;51.130;6.732;2023-04-24T15:24:09;12.30;99.90
2571;DHT22;1295;51.130;6.732;2023-04-24T15:26:34;12.20;99.90
2571;DHT22;1295;51.130;6.732;2023-04-24T15:29:00;12.20;99.90
2571;DHT22;1295;51.130;6.732;2023-04-24T15:31:25;12.20;99.90
2571;DHT22;1295;51.130;6.732;2023-04-24T15:33:52;12.10;99.90
2571;DHT22;1295;51.130;6.732;2023-04-24T15:36:18;12.20;99.90
2571;DHT22;1295;51.130;6.732;2023-04-24T15:38:44;12.10;99.90
2571;DHT22;1295;51.130;6.732;2023-04-24T15:41:09;12.10;99.90
2571;DHT22;1295;51.130;6.732;2023-04-24T15:43:35;12.10;99.90
2571;DHT22;1295;51.130;6.732;2023-04-24T15:46:01;12.10;99.90
2571;DHT22;1295;51.130;6.732;2023-04-24T15:48:28;12.10;99.90
2571;DHT22;1295;51.130;6.732;2023-04-24T15:50:53;12.10;99.90
2571;DHT22;1295;51.130;6.732;2023-04-24T15:53:18;12.10;99.90
2571;DHT22;1295;51.130;6.732;2023-04-24T15:55:45;12.10;99.90